Time;durP1;ratioP1;P1;durP2;ratioP2;P2;SDS_P1;SDS_P2;PMS_P1;PMS_P2;Temp;Humidity;BMP_temperature;BMP_pressure;BME280_temperature;BME280_humidity;BME280_pressure;Samples;Min_cycle;Max_cycle;Signal;HPM_P1;HPM_P2
2021/03/06 00:01:06;;;;;;;9.27;4.88;;;;;;;-1.83;71.80;102311.47;5012667;28;20072;-50
2021/03/06 00:03:32;;;;;;;9.27;4.32;;;;;;;-1.98;72.72;102311.53;5011087;28;20099;-50
2021/03/06 00:05:59;;;;;;;9.23;4.80;;;;;;;-2.00;73.17;102311.38;5013210;28;20160;-53
2021/03/06 00:08:25;;;;;;;7.25;4.55;;;;;;;-1.69;72.41;102295.28;5010994;28;20045;-50
2021/03/06 00:10:54;;;;;;;8.35;4.25;;;;;;;-1.75;71.67;102307.22;5013222;28;20501;-45
2021/03/06 00:13:22;;;;;;;11.77;5.05;;;;;;;-1.88;72.07;102316.75;5011390;28;20046;-55
2021/03/06 00:15:49;;;;;;;8.57;5.18;;;;;;;-1.71;72.21;102310.91;5017561;28;20065;-51
2021/03/06 00:18:15;;;;;;;7.53;5.00;;;;;;;-1.92;72.09;102319.69;5009942;28;20064;-52
2021/03/06 00:20:42;;;;;;;8.23;4.22;;;;;;;-2.00;73.44;102313.88;5011771;28;20069;-49
2021/03/06 00:23:08;;;;;;;7.63;4.95;;;;;;;-2.41;74.52;102312.13;5011693;28;20486;-51
2021/03/06 00:25:35;;;;;;;8.07;5.50;;;;;;;-2.18;75.02;102309.50;5011192;28;20046;-50
2021/03/06 00:28:02;;;;;;;9.52;5.57;;;;;;;-2.04;74.03;102311.78;5012353;28;20041;-53
2021/03/06 00:30:29;;;;;;;9.50;4.80;;;;;;;-1.83;72.64;102313.97;5010548;28;20050;-54
2021/03/06 00:32:56;;;;;;;8.88;5.05;;;;;;;-1.84;72.67;102313.81;5013416;28;20489;-55
2021/03/06 00:35:23;;;;;;;9.85;5.13;;;;;;;-2.31;74.42;102310.75;5010564;28;20128;-52
2021/03/06 00:37:50;;;;;;;9.30;4.95;;;;;;;-2.37;75.91;102307.59;5018102;28;20498;-49
2021/03/06 00:40:16;;;;;;;9.73;5.10;;;;;;;-2.57;76.80;102309.66;5010446;28;20058;-54
2021/03/06 00:42:42;;;;;;;8.90;5.28;;;;;;;-2.34;75.74;102302.91;5011458;28;20045;-55
2021/03/06 00:45:10;;;;;;;7.15;4.95;;;;;;;-2.28;75.20;102296.72;5011370;28;20072;-47
2021/03/06 00:47:38;;;;;;;9.93;5.22;;;;;;;-2.55;77.04;102290.66;5010818;28;20046;-53
2021/03/06 00:50:13;;;;;;;7.05;4.40;;;;;;;-2.22;75.48;102295.72;5013282;28;20454;-48
2021/03/06 00:52:40;;;;;;;7.43;4.15;;;;;;;-2.18;74.15;102292.81;5011095;28;20049;-51
2021/03/06 00:55:07;;;;;;;8.35;4.75;;;;;;;-2.36;75.53;102294.34;5011155;28;20046;-48
2021/03/06 00:57:34;;;;;;;9.55;4.50;;;;;;;-2.22;74.25;102298.25;5010176;28;20045;-57
2021/03/06 01:00:01;;;;;;;7.15;4.47;;;;;;;-2.49;75.86;102291.31;5012205;28;20045;-51
2021/03/06 01:02:27;;;;;;;7.18;4.78;;;;;;;-2.51;76.09;102290.22;5010010;28;20430;-51
2021/03/06 01:04:54;;;;;;;6.97;4.03;;;;;;;-2.31;75.10;102285.66;5013018;28;20048;-51
2021/03/06 01:07:21;;;;;;;6.18;4.38;;;;;;;-2.68;76.46;102285.09;5009685;28;20085;-53
2021/03/06 01:09:47;;;;;;;8.93;4.22;;;;;;;-2.76;76.78;102281.81;5011254;28;20061;-51
2021/03/06 01:12:14;;;;;;;9.23;4.50;;;;;;;-2.45;76.60;102279.94;5010349;28;20465;-50
2021/03/06 01:14:40;;;;;;;9.10;4.55;;;;;;;-2.45;75.96;102279.94;5010721;28;20479;-51
2021/03/06 01:17:07;;;;;;;7.80;4.80;;;;;;;-2.73;76.63;102286.22;5011012;28;20457;-50
2021/03/06 01:19:34;;;;;;;5.55;4.05;;;;;;;-2.63;76.42;102287.38;5009514;28;20069;-56
2021/03/06 01:22:00;;;;;;;6.68;4.03;;;;;;;-2.53;75.59;102286.69;5012000;28;20045;-51
2021/03/06 01:24:35;;;;;;;5.70;4.18;;;;;;;-2.56;76.13;102283.84;5009428;28;20046;-46
2021/03/06 01:27:01;;;;;;;9.55;4.30;;;;;;;-2.72;76.30;102285.53;5011343;28;20045;-50
2021/03/06 01:29:28;;;;;;;6.75;4.30;;;;;;;-2.91;76.97;102282.69;5009165;28;20050;-49
2021/03/06 01:31:56;;;;;;;5.20;3.80;;;;;;;-2.95;78.35;102279.00;5015644;28;20103;-49
2021/03/06 01:34:23;;;;;;;9.80;4.65;;;;;;;-2.80;77.16;102273.81;5009497;28;20942;-53
2021/03/06 01:36:49;;;;;;;6.97;4.10;;;;;;;-2.90;76.80;102280.34;5011143;28;20454;-48
2021/03/06 01:39:16;;;;;;;5.93;3.85;;;;;;;-2.92;77.13;102279.28;5015042;28;20057;-52
2021/03/06 01:41:43;;;;;;;8.63;4.07;;;;;;;-2.77;76.40;102277.53;5011473;28;20053;-54
2021/03/06 01:44:10;;;;;;;7.57;4.25;;;;;;;-2.85;76.61;102273.31;5014448;28;20045;-51
2021/03/06 01:46:37;;;;;;;6.97;4.43;;;;;;;-2.75;77.62;102277.66;5009384;28;20057;-50
2021/03/06 01:49:04;;;;;;;5.80;3.90;;;;;;;-2.83;76.99;102277.75;5009231;28;20060;-53
2021/03/06 01:51:31;;;;;;;8.07;4.10;;;;;;;-2.75;77.04;102281.06;5009199;28;20057;-49
2021/03/06 01:53:59;;;;;;;6.60;3.72;;;;;;;-2.91;76.62;102268.56;5012067;28;20054;-50
2021/03/06 01:56:27;;;;;;;9.25;4.75;;;;;;;-2.85;76.33;102278.34;5009110;28;20086;-49
2021/03/06 01:58:53;;;;;;;6.72;4.13;;;;;;;-2.90;76.98;102285.38;5011816;28;20037;-46
2021/03/06 02:01:20;;;;;;;10.77;4.30;;;;;;;-2.89;77.09;102283.75;5008972;28;20057;-49
2021/03/06 02:03:47;;;;;;;6.63;4.32;;;;;;;-2.58;75.62;102280.31;5010899;28;20053;-51
2021/03/06 02:06:14;;;;;;;7.32;4.13;;;;;;;-2.61;75.58;102272.47;5009334;28;20053;-55
2021/03/06 02:08:40;;;;;;;8.50;3.70;;;;;;;-2.68;75.57;102270.03;5009898;28;20041;-49
2021/03/06 02:11:07;;;;;;;6.82;3.63;;;;;;;-2.65;76.71;102266.25;5010331;28;20044;-49
2021/03/06 02:13:42;;;;;;;7.00;4.20;;;;;;;-2.31;74.86;102262.22;5008926;28;20050;-50
2021/03/06 02:16:33;;;;;;;8.00;3.65;;;;;;;-2.67;76.02;102264.31;5012350;28;20466;-54
2021/03/06 02:19:06;;;;;;;8.20;3.97;;;;;;;-2.63;75.59;102263.91;5010704;28;20073;-54
2021/03/06 02:21:41;;;;;;;7.05;3.95;;;;;;;-2.79;75.75;102261.41;5008913;28;20047;-54
2021/03/06 02:24:35;;;;;;;4.53;3.40;;;;;;;-2.69;76.45;102260.75;5012434;28;20050;-48
2021/03/06 02:27:14;;;;;;;4.22;3.22;;;;;;;-2.60;75.66;102260.06;5010490;28;20395;-48
2021/03/06 02:29:43;;;;;;;5.97;3.38;;;;;;;-2.75;75.30;102266.03;5009817;28;20061;-51
2021/03/06 02:32:21;;;;;;;5.88;3.20;;;;;;;-2.86;75.46;102259.03;5009588;28;20045;-51
2021/03/06 02:35:08;;;;;;;7.22;4.20;;;;;;;-2.74;76.21;102251.88;5010977;28;20054;-48
2021/03/06 02:37:42;;;;;;;7.30;4.03;;;;;;;-2.60;74.70;102251.66;5016809;28;20062;-48
2021/03/06 02:40:11;;;;;;;7.88;3.28;;;;;;;-2.89;75.62;102254.56;5012337;28;20052;-53
2021/03/06 02:42:41;;;;;;;7.03;3.80;;;;;;;-2.89;76.19;102258.69;5009391;28;20427;-48
2021/03/06 02:45:09;;;;;;;7.32;3.67;;;;;;;-2.95;76.26;102250.53;5011978;28;20045;-53
2021/03/06 02:47:37;;;;;;;5.75;3.50;;;;;;;-2.84;75.77;102255.03;5008812;28;20060;-52
2021/03/06 02:50:07;;;;;;;5.80;3.05;;;;;;;-2.92;75.82;102254.22;5012225;28;20050;-53
2021/03/06 02:52:34;;;;;;;8.85;3.88;;;;;;;-2.86;75.60;102252.38;5008923;28;20042;-50
2021/03/06 02:55:00;;;;;;;5.22;3.10;;;;;;;-3.23;77.45;102249.25;5010577;28;20050;-50
2021/03/06 02:57:57;;;;;;;7.97;3.72;;;;;;;-3.19;76.64;102253.84;5008196;28;20045;-49
2021/03/06 03:00:37;;;;;;;6.97;3.30;;;;;;;-3.20;77.29;102247.06;5010328;28;20553;-56
2021/03/06 03:03:18;;;;;;;5.30;2.92;;;;;;;-2.99;75.97;102246.81;5011280;28;20125;-48
2021/03/06 03:05:51;;;;;;;5.90;3.00;;;;;;;-3.13;76.96;102247.88;5009570;28;20060;-52
2021/03/06 03:08:28;;;;;;;5.40;3.20;;;;;;;-3.16;76.87;102250.03;5008371;28;20045;-47
2021/03/06 03:10:58;;;;;;;5.10;2.88;;;;;;;-3.13;77.69;102249.50;5011405;28;20045;-51
2021/03/06 03:13:30;;;;;;;6.38;3.65;;;;;;;-2.86;76.11;102249.88;5008494;28;20052;-51
2021/03/06 03:16:11;;;;;;;6.45;3.20;;;;;;;-2.98;77.01;102246.09;5010765;28;20452;-50
2021/03/06 03:18:46;;;;;;;4.57;2.88;;;;;;;-2.93;76.37;102246.56;5008937;28;20078;-50
2021/03/06 03:21:19;;;;;;;4.90;3.13;;;;;;;-2.92;76.77;102249.22;5014713;28;20052;-53
2021/03/06 03:24:01;;;;;;;6.75;2.80;;;;;;;-2.93;76.94;102249.94;5010280;28;20429;-50
2021/03/06 03:26:29;;;;;;;6.10;2.80;;;;;;;-3.02;76.52;102245.59;5009664;28;20049;-51
2021/03/06 03:28:57;;;;;;;5.10;3.15;;;;;;;-3.13;77.50;102254.50;5010998;28;20568;-52
2021/03/06 03:31:26;;;;;;;4.57;2.80;;;;;;;-3.04;77.04;102255.47;5008368;28;20050;-55
2021/03/06 03:33:53;;;;;;;6.10;2.92;;;;;;;-3.15;77.00;102251.81;5014560;28;20478;-50
2021/03/06 03:36:24;;;;;;;4.55;2.63;;;;;;;-3.08;76.54;102245.84;5011378;28;20052;-51
2021/03/06 03:38:52;;;;;;;5.18;2.80;;;;;;;-3.12;76.44;102246.25;5019515;28;20565;-50
2021/03/06 03:41:19;;;;;;;4.97;2.97;;;;;;;-3.06;77.23;102249.38;5013412;28;20050;-46
2021/03/06 03:43:46;;;;;;;5.55;2.47;;;;;;;-3.28;77.96;102250.34;5013203;28;20046;-51
2021/03/06 03:46:13;;;;;;;3.58;2.55;;;;;;;-3.04;77.69;102252.97;5011686;28;20050;-48
2021/03/06 03:48:43;;;;;;;6.35;2.83;;;;;;;-3.12;77.52;102258.78;5012196;28;20173;-52
2021/03/06 03:51:11;;;;;;;7.43;2.80;;;;;;;-3.04;78.15;102260.47;5012310;28;20041;-53
2021/03/06 03:53:39;;;;;;;5.30;2.80;;;;;;;-3.34;78.20;102269.03;5011937;28;20104;-54
2021/03/06 03:56:19;;;;;;;8.35;3.47;;;;;;;-3.41;78.51;102278.25;5012687;28;20712;-51
2021/03/06 03:58:47;;;;;;;7.60;2.70;;;;;;;-2.95;77.17;102270.59;5016260;28;20149;-46
2021/03/06 04:01:13;;;;;;;4.72;2.55;;;;;;;-3.21;78.60;102273.72;5011872;28;20053;-54
2021/03/06 04:03:40;;;;;;;7.10;3.33;;;;;;;-3.10;78.04;102260.72;5012131;28;20173;-48
2021/03/06 04:06:07;;;;;;;5.80;2.58;;;;;;;-3.11;77.83;102271.47;5012712;28;20057;-51
2021/03/06 04:08:34;;;;;;;5.60;2.80;;;;;;;-2.91;77.60;102268.56;5011325;28;20732;-48
2021/03/06 04:11:01;;;;;;;5.90;2.60;;;;;;;-2.98;77.61;102266.13;5013735;28;20049;-55
2021/03/06 04:13:28;;;;;;;5.53;2.83;;;;;;;-3.12;77.94;102266.31;5011254;28;20046;-51
2021/03/06 04:15:55;;;;;;;4.90;2.95;;;;;;;-3.25;78.26;102276.63;5014326;28;20097;-52
2021/03/06 04:18:22;;;;;;;6.10;2.88;;;;;;;-3.30;79.18;102271.88;5011001;28;20058;-52
2021/03/06 04:21:03;;;;;;;4.63;2.90;;;;;;;-3.17;79.20;102268.31;5013411;28;20050;-48
2021/03/06 04:23:30;;;;;;;8.50;3.50;;;;;;;-3.49;79.80;102266.50;5012566;28;20069;-49
2021/03/06 04:25:57;;;;;;;5.93;2.42;;;;;;;-3.14;79.34;102280.28;5012597;28;20521;-50
2021/03/06 04:28:23;;;;;;;4.68;3.25;;;;;;;-3.31;78.88;102278.50;5010980;28;20042;-49
2021/03/06 04:30:50;;;;;;;5.07;3.10;;;;;;;-3.14;78.54;102271.16;5013636;28;20633;-50
2021/03/06 04:33:17;;;;;;;3.05;2.15;;;;;;;-3.33;79.70;102277.44;5011690;28;20046;-53
2021/03/06 04:35:44;;;;;;;8.32;3.28;;;;;;;-3.33;79.66;102273.34;5012915;28;20064;-49
2021/03/06 04:38:11;;;;;;;6.88;2.95;;;;;;;-3.13;79.39;102272.03;5017965;28;20589;-50
2021/03/06 04:40:37;;;;;;;4.15;2.50;;;;;;;-3.34;79.54;102279.03;5011722;28;20046;-54
2021/03/06 04:43:04;;;;;;;5.43;2.58;;;;;;;-3.30;79.70;102277.75;5010667;28;20057;-53
2021/03/06 04:45:30;;;;;;;5.72;2.50;;;;;;;-3.18;78.98;102273.19;5010596;28;20078;-48
2021/03/06 04:47:57;;;;;;;4.50;2.67;;;;;;;-3.11;79.06;102278.97;5013025;28;20750;-46
2021/03/06 04:50:24;;;;;;;6.20;2.63;;;;;;;-3.10;79.68;102269.84;5015796;28;20065;-52
2021/03/06 04:52:52;;;;;;;4.60;2.67;;;;;;;-2.92;78.19;102281.78;5013998;28;20144;-53
2021/03/06 04:55:18;;;;;;;4.85;2.78;;;;;;;-2.92;78.43;102274.28;5011102;28;20053;-50
2021/03/06 04:57:45;;;;;;;6.72;2.83;;;;;;;-3.09;78.78;102277.53;5012295;28;20054;-54
2021/03/06 05:00:12;;;;;;;5.45;2.80;;;;;;;-3.16;79.74;102282.63;5011170;28;20046;-51
2021/03/06 05:02:38;;;;;;;7.40;2.38;;;;;;;-3.11;79.07;102299.03;5010427;28;20058;-54
2021/03/06 05:05:06;;;;;;;4.07;2.75;;;;;;;-2.96;78.77;102289.72;5014429;28;20053;-51
2021/03/06 05:07:34;;;;;;;5.80;2.65;;;;;;;-3.29;79.22;102289.56;5010772;28;20383;-51
2021/03/06 05:10:00;;;;;;;4.25;2.70;;;;;;;-3.11;79.86;102296.50;5013005;28;20048;-52
2021/03/06 05:12:28;;;;;;;4.18;2.80;;;;;;;-3.12;80.06;102294.75;5010286;28;20434;-49
2021/03/06 05:14:54;;;;;;;7.55;3.95;;;;;;;-2.82;78.96;102291.16;5013731;28;20045;-56
2021/03/06 05:17:21;;;;;;;7.93;2.70;;;;;;;-2.74;77.36;102292.88;5010407;28;20545;-52
2021/03/06 05:19:48;;;;;;;7.25;4.13;;;;;;;-3.06;79.49;102299.50;5012655;28;20096;-47
2021/03/06 05:22:15;;;;;;;9.48;6.32;;;;;;;-3.49;81.30;102294.06;5010611;28;20073;-50
2021/03/06 05:24:42;;;;;;;7.03;5.03;;;;;;;-3.41;81.12;102295.78;5011768;28;20048;-56
2021/03/06 05:27:27;;;;;;;7.32;4.30;;;;;;;-3.48;81.65;102298.34;5011721;28;20509;-51
2021/03/06 05:29:54;;;;;;;9.40;4.65;;;;;;;-3.67;82.73;102290.47;5013273;28;20056;-51
2021/03/06 05:32:21;;;;;;;6.18;3.50;;;;;;;-3.50;82.30;102305.69;5010181;28;20046;-45
2021/03/06 05:34:47;;;;;;;6.18;3.35;;;;;;;-3.05;80.46;102305.41;5012468;28;20069;-53
2021/03/06 05:37:14;;;;;;;4.90;2.45;;;;;;;-3.14;80.08;102315.38;5013398;28;20052;-55
2021/03/06 05:39:40;;;;;;;6.90;3.03;;;;;;;-3.18;80.64;102316.66;5018350;28;20050;-50
2021/03/06 05:42:10;;;;;;;6.68;2.95;;;;;;;-3.05;80.18;102313.84;5010130;28;20057;-52
2021/03/06 05:44:38;;;;;;;7.70;2.95;;;;;;;-2.99;79.92;102318.59;5010653;28;20530;-47
2021/03/06 05:47:05;;;;;;;6.32;3.20;;;;;;;-2.99;79.96;102319.50;5009998;28;20060;-50
2021/03/06 05:49:34;;;;;;;5.78;3.50;;;;;;;-2.94;79.89;102320.84;5009804;28;20061;-48
2021/03/06 05:52:02;;;;;;;6.93;2.78;;;;;;;-3.08;79.90;102319.41;5012134;28;20065;-48
2021/03/06 05:54:34;;;;;;;7.03;2.55;;;;;;;-3.03;80.94;102314.88;5009191;28;20420;-48
2021/03/06 05:57:04;;;;;;;10.82;3.33;;;;;;;-3.02;79.61;102313.25;5011849;28;20049;-49
2021/03/06 05:59:31;;;;;;;4.05;2.90;;;;;;;-3.26;80.81;102307.41;5009749;28;20041;-51
2021/03/06 06:02:01;;;;;;;4.45;2.65;;;;;;;-3.12;80.70;102312.28;5011817;28;20125;-53
2021/03/06 06:04:35;;;;;;;5.38;2.67;;;;;;;-3.16;81.24;102307.66;5009627;28;20045;-53
2021/03/06 06:07:05;;;;;;;;;;;;;;;-3.29;80.67;102308.72;5013864;28;20118;-53
2021/03/06 06:09:32;;;;;;;7.72;3.08;;;;;;;-3.36;81.33;102304.66;5009872;28;19944;-51
2021/03/06 06:12:00;;;;;;;4.82;2.88;;;;;;;-3.36;80.76;102305.56;5012345;28;20045;-50
2021/03/06 06:14:40;;;;;;;3.75;2.33;;;;;;;-3.31;80.25;102311.06;5010226;28;20073;-49
2021/03/06 06:17:09;;;;;;;4.90;2.53;;;;;;;-3.06;79.97;102312.03;5014897;28;20528;-53
2021/03/06 06:19:37;;;;;;;3.25;2.40;;;;;;;-3.28;80.04;102310.47;5009995;28;20077;-51
2021/03/06 06:22:32;;;;;;;5.20;2.78;;;;;;;-3.04;78.74;102320.63;5009570;28;20064;-50
2021/03/06 06:24:59;;;;;;;6.70;3.55;;;;;;;-3.08;78.63;102323.53;5010928;28;20916;-53
2021/03/06 06:27:31;;;;;;;6.20;3.45;;;;;;;-2.93;78.47;102324.25;5009787;28;20050;-46
2021/03/06 06:30:00;;;;;;;8.13;2.65;;;;;;;-3.02;78.35;102321.66;5010336;28;20049;-53
2021/03/06 06:32:41;;;;;;;7.10;3.20;;;;;;;-3.02;77.65;102326.66;5010686;28;20050;-55
2021/03/06 06:35:13;;;;;;;5.55;2.83;;;;;;;-2.90;78.23;102320.47;5013524;28;20041;-54
2021/03/06 06:37:54;;;;;;;6.55;2.97;;;;;;;-3.14;77.91;102323.78;5015933;28;20041;-50
2021/03/06 06:40:26;;;;;;;5.30;3.08;;;;;;;-2.93;78.01;102326.75;5014751;28;20402;-52
2021/03/06 06:42:53;;;;;;;5.20;3.05;;;;;;;-2.72;77.74;102324.00;5014735;28;20052;-54
2021/03/06 06:45:20;;;;;;;5.97;3.70;;;;;;;-2.60;77.04;102322.75;5009278;28;20050;-51
2021/03/06 06:47:52;;;;;;;7.65;4.07;;;;;;;-2.55;76.29;102328.25;5021330;28;20049;-56
2021/03/06 06:50:31;;;;;;;8.27;3.90;;;;;;;-2.57;77.20;102330.63;5013215;28;20100;-48
2021/03/06 06:52:57;;;;;;;6.47;3.33;;;;;;;-2.32;76.18;102335.66;5011006;28;20052;-50
2021/03/06 06:55:53;;;;;;;7.63;3.42;;;;;;;-2.07;75.59;102345.00;5009733;28;20060;-48
2021/03/06 06:58:39;;;;;;;7.60;2.78;;;;;;;-1.83;74.81;102350.75;5009875;28;20050;-50
2021/03/06 07:01:32;;;;;;;5.35;2.30;;;;;;;-1.94;74.57;102346.22;5013495;28;20061;-48
2021/03/06 07:04:08;;;;;;;8.18;4.38;;;;;;;-1.96;74.94;102343.59;5016995;28;20049;-49
2021/03/06 07:06:36;;;;;;;6.95;3.78;;;;;;;-2.02;74.76;102347.97;5022444;28;20050;-54
2021/03/06 07:09:07;;;;;;;6.00;3.63;;;;;;;-2.03;75.73;102336.19;5015544;28;20041;-47
2021/03/06 07:11:34;;;;;;;10.65;4.00;;;;;;;-1.96;75.49;102340.19;5014024;28;20042;-46
2021/03/06 07:14:01;;;;;;;5.82;2.97;;;;;;;-1.67;75.00;102340.63;5016157;28;20597;-48
2021/03/06 07:16:59;;;;;;;4.65;2.58;;;;;;;-1.63;75.36;102340.19;5013656;28;20046;-48
2021/03/06 07:19:30;;;;;;;4.60;2.38;;;;;;;-1.71;76.44;102338.53;5014944;28;20073;-50
2021/03/06 07:21:59;;;;;;;6.82;3.20;;;;;;;-1.55;76.03;102327.69;5016194;28;20045;-50
2021/03/06 07:24:28;;;;;;;4.97;3.00;;;;;;;-1.40;75.93;102335.84;4996453;28;20046;-51
2021/03/06 07:26:55;;;;;;;5.32;2.78;;;;;;;-1.20;75.19;102340.38;5016224;28;20049;-49
2021/03/06 07:29:23;;;;;;;6.13;2.80;;;;;;;-1.10;75.35;102338.03;5017169;28;20133;-54
2021/03/06 07:31:53;;;;;;;3.33;2.35;;;;;;;-1.00;75.05;102337.31;5015641;28;20046;-50
2021/03/06 07:34:23;;;;;;;9.25;2.63;;;;;;;-1.10;75.48;102334.63;5015203;28;20137;-50
2021/03/06 07:36:50;;;;;;;8.82;3.50;;;;;;;-0.88;75.68;102335.06;5015872;28;20057;-51
2021/03/06 07:39:18;;;;;;;6.90;2.30;;;;;;;-0.70;75.09;102343.53;5019479;28;20062;-51
2021/03/06 07:41:56;;;;;;;6.82;3.08;;;;;;;-0.56;74.59;102341.59;5015095;28;20442;-52
2021/03/06 07:44:33;;;;;;;6.47;2.65;;;;;;;-0.80;75.87;102329.19;5035305;28;20041;-51
2021/03/06 07:47:00;;;;;;;4.85;2.45;;;;;;;-0.41;75.60;102337.19;5025214;28;20505;-46
2021/03/06 07:49:32;;;;;;;5.07;2.30;;;;;;;-0.26;75.36;102337.75;5023996;28;20068;-46
2021/03/06 07:52:01;;;;;;;8.15;2.75;;;;;;;0.10;73.92;102337.84;5030770;28;20486;-48
2021/03/06 07:54:31;;;;;;;7.35;2.55;;;;;;;-0.01;73.93;102346.00;5031201;28;20067;-43
2021/03/06 07:56:59;;;;;;;6.20;2.70;;;;;;;0.03;74.56;102345.56;5032614;28;20037;-51
2021/03/06 07:59:54;;;;;;;7.03;2.90;;;;;;;0.43;72.88;102339.22;5035781;28;20124;-49
2021/03/06 08:02:37;;;;;;;10.05;3.75;;;;;;;0.61;72.68;102342.53;5033708;28;20670;-46
2021/03/06 08:05:07;;;;;;;5.75;3.05;;;;;;;1.23;69.71;102343.19;5033394;28;20408;-48
2021/03/06 08:07:48;;;;;;;3.75;2.33;;;;;;;2.10;67.73;102349.13;5024695;28;20042;-43
2021/03/06 08:10:15;;;;;;;7.07;2.03;;;;;;;2.95;63.66;102348.75;5027243;28;20049;-52
2021/03/06 08:12:41;;;;;;;5.00;1.92;;;;;;;3.56;62.44;102345.31;5020057;28;20049;-43
2021/03/06 08:15:32;;;;;;;6.78;2.28;;;;;;;5.01;56.89;102343.91;5017995;28;20668;-42
2021/03/06 08:18:00;;;;;;;5.18;2.08;;;;;;;4.38;58.08;102338.25;5015499;28;20064;-45
2021/03/06 08:20:32;;;;;;;5.13;1.73;;;;;;;4.22;57.99;102331.13;5026142;28;20200;-41
2021/03/06 08:23:17;;;;;;;4.88;1.70;;;;;;;3.63;60.53;102327.28;5021828;28;20045;-49
2021/03/06 08:25:45;;;;;;;5.78;2.33;;;;;;;3.59;60.69;102332.88;5015424;28;20391;-48
2021/03/06 08:28:24;;;;;;;6.43;2.17;;;;;;;3.09;62.93;102323.72;5012082;28;20052;-50
2021/03/06 08:30:53;;;;;;;5.28;2.05;;;;;;;3.05;62.70;102326.00;5014647;28;20056;-50
2021/03/06 08:33:21;;;;;;;5.65;2.05;;;;;;;3.13;62.99;102336.75;5013120;28;20129;-48
2021/03/06 08:35:48;;;;;;;5.18;1.55;;;;;;;4.15;60.21;102336.47;5014008;28;24102;-45
2021/03/06 08:38:31;;;;;;;6.45;1.95;;;;;;;4.91;57.22;102326.22;5017768;28;20053;-47
2021/03/06 08:40:59;;;;;;;5.45;1.90;;;;;;;4.03;58.63;102330.47;5015505;28;20049;-44
2021/03/06 08:43:25;;;;;;;5.25;2.25;;;;;;;3.14;62.55;102335.09;5011851;28;20049;-50
2021/03/06 08:45:52;;;;;;;4.13;2.30;;;;;;;2.80;64.22;102330.69;5014155;28;20053;-45
2021/03/06 08:48:22;;;;;;;10.23;2.45;;;;;;;2.72;64.64;102339.25;5013387;28;20096;-41
2021/03/06 08:50:49;;;;;;;6.10;1.60;;;;;;;2.44;65.58;102342.75;5013456;28;20057;-49
2021/03/06 08:53:17;;;;;;;4.43;2.05;;;;;;;2.11;67.58;102338.25;5010005;28;20141;-48
2021/03/06 08:55:45;;;;;;;6.07;1.98;;;;;;;2.16;67.32;102330.28;5012540;28;20046;-51
2021/03/06 08:58:14;;;;;;;4.30;1.70;;;;;;;2.16;68.09;102335.34;5011116;28;20049;-46
2021/03/06 09:00:43;;;;;;;4.82;1.92;;;;;;;2.25;68.49;102336.13;5011837;28;20617;-45
2021/03/06 09:03:21;;;;;;;7.75;2.75;;;;;;;2.04;69.30;102345.31;5011090;28;20049;-52
2021/03/06 09:05:54;;;;;;;8.82;1.90;;;;;;;2.60;68.05;102343.31;5012725;28;20486;-50
2021/03/06 09:08:22;;;;;;;8.23;2.28;;;;;;;2.76;67.61;102353.06;5011411;28;20050;-56
2021/03/06 09:10:50;;;;;;;6.63;2.08;;;;;;;2.69;68.01;102349.16;5013063;28;20054;-46
2021/03/06 09:13:21;;;;;;;6.03;2.00;;;;;;;3.03;67.00;102344.34;5011074;28;20111;-46
2021/03/06 09:15:54;;;;;;;6.10;2.00;;;;;;;2.77;68.04;102340.56;5013113;28;20100;-50
2021/03/06 09:18:26;;;;;;;5.03;2.05;;;;;;;3.01;67.73;102348.41;5013304;28;20116;-49
2021/03/06 09:20:58;;;;;;;4.78;1.95;;;;;;;2.88;67.10;102345.63;5017147;28;20046;-42
2021/03/06 09:23:36;;;;;;;9.00;2.00;;;;;;;3.14;66.49;102347.75;5022201;28;20040;-52
2021/03/06 09:26:13;;;;;;;6.70;2.00;;;;;;;3.10;65.97;102351.69;5012283;28;20045;-44
2021/03/06 09:28:40;;;;;;;5.80;2.22;;;;;;;3.30;66.91;102346.63;5019130;28;20727;-41
2021/03/06 09:31:14;;;;;;;3.55;1.60;;;;;;;3.70;64.50;102352.38;5011294;28;20061;-51
2021/03/06 09:33:42;;;;;;;4.32;1.85;;;;;;;3.87;63.42;102348.63;5011832;28;20056;-49
2021/03/06 09:36:10;;;;;;;6.55;1.67;;;;;;;4.05;62.89;102349.19;5011210;28;20078;-45
2021/03/06 09:38:48;;;;;;;2.92;1.30;;;;;;;4.16;61.76;102350.03;5017026;28;20057;-43
2021/03/06 09:41:18;;;;;;;4.45;1.98;;;;;;;4.20;62.32;102352.03;5017628;28;20045;-47
2021/03/06 09:43:54;;;;;;;8.50;1.73;;;;;;;4.43;60.18;102349.63;5012682;28;20057;-44
2021/03/06 09:46:25;;;;;;;3.70;1.58;;;;;;;4.45;60.46;102350.66;5012553;28;20053;-47
2021/03/06 09:48:59;;;;;;;4.15;1.40;;;;;;;4.75;59.46;102353.75;5012936;28;20048;-45
2021/03/06 09:51:50;;;;;;;4.78;1.33;;;;;;;5.64;55.77;102351.06;5012750;28;20190;-46
2021/03/06 09:54:21;;;;;;;3.47;2.22;;;;;;;6.32;55.24;102349.13;5036678;28;20046;-48
2021/03/06 09:56:53;;;;;;;3.78;1.20;;;;;;;5.87;54.82;102345.97;5038032;28;20044;-42
2021/03/06 09:59:21;;;;;;;5.72;1.35;;;;;;;6.90;51.49;102342.91;5037948;28;20055;-49
2021/03/06 10:01:48;;;;;;;4.50;1.20;;;;;;;6.74;51.63;102330.81;5038156;28;20044;-49
2021/03/06 10:04:22;;;;;;;2.67;1.20;;;;;;;6.86;52.35;102328.22;5038186;28;20057;-52
2021/03/06 10:06:55;;;;;;;4.78;1.40;;;;;;;7.49;49.89;102340.88;5037682;28;20063;-47
2021/03/06 10:09:23;;;;;;;5.68;1.40;;;;;;;8.58;47.07;102332.38;5037228;28;20059;-47
2021/03/06 10:11:53;;;;;;;4.00;1.33;;;;;;;9.10;47.58;102338.88;5037417;28;20075;-43
2021/03/06 10:14:27;;;;;;;5.30;1.30;;;;;;;8.07;48.35;102333.47;5037778;28;20132;-47
2021/03/06 10:16:59;;;;;;;4.90;1.60;;;;;;;8.25;48.26;102331.19;5037342;28;20048;-53
2021/03/06 10:19:28;;;;;;;5.47;1.58;;;;;;;7.54;50.63;102328.44;5033836;28;20071;-49
2021/03/06 10:22:01;;;;;;;4.50;2.70;;;;;;;7.31;51.08;102327.81;5031579;28;20057;-43
2021/03/06 10:24:29;;;;;;;5.03;1.73;;;;;;;7.04;52.46;102316.69;5017565;28;20055;-45
2021/03/06 10:27:00;;;;;;;5.72;2.40;;;;;;;6.98;53.38;102321.41;5040734;28;20045;-55
2021/03/06 10:29:28;;;;;;;8.38;2.95;;;;;;;7.30;53.22;102320.06;5028500;28;20095;-47
2021/03/06 10:32:00;;;;;;;8.07;3.05;;;;;;;7.29;53.34;102325.94;5037561;28;20079;-49
2021/03/06 10:34:49;;;;;;;7.82;2.50;;;;;;;7.33;53.37;102320.25;5035083;28;20041;-52
2021/03/06 10:37:19;;;;;;;7.82;3.00;;;;;;;7.26;53.70;102321.56;5034607;28;20773;-49
2021/03/06 10:39:57;;;;;;;7.25;2.40;;;;;;;6.74;56.20;102310.44;5036194;28;20072;-51
2021/03/06 10:42:45;;;;;;;10.20;3.88;;;;;;;6.18;56.52;102312.53;5035566;28;20045;-52
2021/03/06 10:45:30;;;;;;;7.55;3.08;;;;;;;6.44;57.13;102316.00;5037697;28;20054;-52
2021/03/06 10:47:59;;;;;;;7.53;1.85;;;;;;;6.27;57.71;102320.81;5038749;28;20045;-42
2021/03/06 10:50:32;;;;;;;4.00;1.38;;;;;;;6.98;56.76;102320.50;5037306;28;20505;-44
2021/03/06 10:53:19;;;;;;;5.10;1.67;;;;;;;7.13;56.44;102317.31;5037615;28;20044;-48
2021/03/06 10:55:47;;;;;;;6.90;1.40;;;;;;;6.94;56.38;102313.44;5038147;28;20040;-53
2021/03/06 10:58:16;;;;;;;5.40;1.60;;;;;;;6.89;56.43;102316.56;5041478;28;20413;-50
2021/03/06 11:00:44;;;;;;;3.13;2.38;;;;;;;6.74;56.93;102320.63;5040563;28;20079;-54
2021/03/06 11:03:13;;;;;;;7.03;1.55;;;;;;;6.53;57.21;102316.66;5033209;28;20719;-49
2021/03/06 11:05:41;;;;;;;9.15;1.73;;;;;;;6.70;59.08;102312.66;5032225;28;20053;-50
2021/03/06 11:08:20;;;;;;;9.63;2.40;;;;;;;7.01;58.23;102310.50;5038361;28;20512;-52
2021/03/06 11:10:50;;;;;;;4.53;1.30;;;;;;;6.99;57.63;102312.09;5040846;28;20091;-54
2021/03/06 11:13:19;;;;;;;8.82;4.43;;;;;;;6.93;57.32;102311.66;5040425;28;20045;-49
2021/03/06 11:15:50;;;;;;;11.50;6.75;;;;;;;6.80;57.65;102300.69;5038317;28;20043;-49
2021/03/06 11:18:18;;;;;;;6.85;1.92;;;;;;;7.38;55.73;102306.16;5040926;28;20462;-50
2021/03/06 11:20:45;;;;;;;4.43;2.47;;;;;;;7.07;56.57;102295.63;5041744;28;20502;-51
2021/03/06 11:23:12;;;;;;;6.78;2.30;;;;;;;6.75;58.84;102296.94;5037458;28;20558;-44
2021/03/06 11:25:39;;;;;;;9.48;3.17;;;;;;;6.55;59.92;102290.50;5041122;28;20071;-55
2021/03/06 11:28:07;;;;;;;4.07;1.98;;;;;;;7.64;57.66;102292.53;5036535;28;20045;-54
2021/03/06 11:30:44;;;;;;;5.22;2.03;;;;;;;8.10;54.46;102296.28;5040839;28;20045;-51
2021/03/06 11:33:14;;;;;;;5.28;1.80;;;;;;;7.88;56.18;102286.41;5038127;28;20073;-42
2021/03/06 11:35:42;;;;;;;4.68;2.13;;;;;;;6.91;58.51;102290.31;5038946;28;20497;-48
2021/03/06 11:38:10;;;;;;;11.70;5.97;;;;;;;7.02;58.29;102286.81;5036616;28;20060;-49
2021/03/06 11:40:40;;;;;;;7.40;3.95;;;;;;;6.94;57.70;102283.78;5037904;28;20053;-49
2021/03/06 11:43:07;;;;;;;9.05;2.95;;;;;;;6.79;58.47;102278.53;5037551;28;20053;-51